Time;durP1;ratioP1;P1;durP2;ratioP2;P2;SDS_P1;SDS_P2;PMS_P1;PMS_P2;Temp;Humidity;BMP_temperature;BMP_pressure;BME280_temperature;BME280_humidity;BME280_pressure;Samples;Min_cycle;Max_cycle;Signal;HPM_P1;HPM_P2
2022/07/04 00:01:36;;;;;;;2.65;1.00;;;16.70;99.90;;;;;;5085366;28;20048;-85
2022/07/04 00:04:02;;;;;;;4.63;1.10;;;16.70;99.90;;;;;;5067638;28;20075;-83
2022/07/04 00:06:30;;;;;;;3.88;1.25;;;16.70;99.90;;;;;;5074471;28;20048;-84
2022/07/04 00:08:58;;;;;;;5.55;0.90;;;16.70;99.90;;;;;;5055325;28;20064;-85
2022/07/04 00:11:29;;;;;;;3.05;1.05;;;16.70;99.90;;;;;;5043703;28;20044;-86
2022/07/04 00:14:02;;;;;;;2.97;1.08;;;16.70;99.90;;;;;;5049323;28;20048;-85
2022/07/04 00:16:31;;;;;;;3.17;1.02;;;16.70;99.90;;;;;;5039847;28;20155;-86
2022/07/04 00:18:57;;;;;;;3.63;1.02;;;16.70;99.90;;;;;;5063253;28;20155;-86
2022/07/04 00:21:23;;;;;;;4.78;1.15;;;16.70;99.90;;;;;;5038447;28;20126;-86
2022/07/04 00:23:48;;;;;;;4.88;1.00;;;16.70;99.90;;;;;;5052697;28;20147;-85
2022/07/04 00:26:17;;;;;;;3.10;1.00;;;16.70;99.90;;;;;;5055573;28;20123;-85
2022/07/04 00:28:43;;;;;;;5.13;1.00;;;17.00;99.90;;;;;;5046047;28;20059;-85
2022/07/04 00:31:11;;;;;;;2.17;0.98;;;16.70;99.90;;;;;;5053459;28;20040;-86
2022/07/04 00:33:37;;;;;;;2.75;0.90;;;16.80;99.90;;;;;;5053872;28;20060;-86
2022/07/04 00:36:06;;;;;;;2.55;1.10;;;16.80;99.90;;;;;;5045261;28;20040;-86
2022/07/04 00:38:35;;;;;;;3.20;1.10;;;16.80;99.90;;;;;;5054003;28;20052;-86
2022/07/04 00:41:02;;;;;;;3.00;1.00;;;16.80;99.90;;;;;;5070253;28;20064;-85
2022/07/04 00:43:30;;;;;;;4.25;1.17;;;16.80;99.90;;;;;;5030428;28;20083;-86
2022/07/04 00:45:56;;;;;;;3.55;1.08;;;16.80;99.90;;;;;;5030846;28;20069;-85
2022/07/04 00:48:22;;;;;;;3.70;1.00;;;16.80;99.90;;;;;;5049148;28;20048;-86
2022/07/04 00:50:49;;;;;;;2.70;0.95;;;16.80;99.90;;;;;;5053875;28;20048;-84
2022/07/04 00:53:16;;;;;;;2.55;0.90;;;16.90;99.90;;;;;;5071289;28;20406;-86
2022/07/04 00:55:47;;;;;;;3.22;0.95;;;16.90;99.90;;;;;;5054230;28;20411;-86
2022/07/04 00:58:14;;;;;;;2.70;0.88;;;16.90;99.90;;;;;;5046150;28;20123;-85
2022/07/04 01:00:40;;;;;;;4.22;1.30;;;16.90;99.90;;;;;;5046107;28;20040;-86
2022/07/04 01:03:06;;;;;;;3.55;0.95;;;16.90;99.90;;;;;;5054099;28;20056;-85
2022/07/04 01:05:34;;;;;;;3.72;1.20;;;16.90;99.90;;;;;;5053541;28;20052;-85
2022/07/04 01:08:01;;;;;;;3.03;1.10;;;16.90;99.90;;;;;;5042119;28;20544;-86
2022/07/04 01:10:29;;;;;;;2.75;1.20;;;16.20;99.90;;;;;;5055528;28;20066;-86
2022/07/04 01:12:55;;;;;;;2.58;1.00;;;17.00;99.90;;;;;;5063370;28;20121;-85
2022/07/04 01:15:21;;;;;;;3.00;1.15;;;17.00;99.90;;;;;;5065836;28;20082;-85
2022/07/04 01:17:50;;;;;;;4.00;1.20;;;17.00;99.90;;;;;;5048275;28;20484;-86
2022/07/04 01:20:17;;;;;;;2.92;1.02;;;17.00;99.90;;;;;;5053742;28;20058;-85
2022/07/04 01:22:43;;;;;;;4.57;1.40;;;17.00;99.90;;;;;;5053400;28;20055;-86
2022/07/04 01:25:13;;;;;;;5.00;1.73;;;17.00;99.90;;;;;;5060040;28;20403;-86
2022/07/04 01:27:39;;;;;;;4.47;1.25;;;16.40;99.90;;;;;;5050758;28;20074;-87
2022/07/04 01:30:06;;;;;;;3.60;1.05;;;16.90;99.90;;;;;;5048171;28;20056;-86
2022/07/04 01:32:32;;;;;;;3.47;1.17;;;16.90;99.90;;;;;;5047224;28;20048;-86
2022/07/04 01:34:57;;;;;;;3.85;1.00;;;16.90;99.90;;;;;;5037345;28;20040;-86
2022/07/04 01:37:23;;;;;;;3.00;1.00;;;16.90;99.90;;;;;;5047198;28;20067;-85
2022/07/04 01:39:54;;;;;;;4.90;1.20;;;16.90;99.90;;;;;;5063936;28;20040;-86
2022/07/04 01:42:22;;;;;;;2.78;1.00;;;16.80;99.90;;;;;;5053220;28;20080;-86
2022/07/04 01:44:57;;;;;;;3.55;1.00;;;16.80;99.90;;;;;;5052981;28;20052;-86
2022/07/04 01:47:27;;;;;;;3.97;1.00;;;16.80;99.90;;;;;;5049879;28;20052;-86
2022/07/04 01:49:55;;;;;;;3.17;0.95;;;16.80;99.90;;;;;;5035874;28;20498;-86
2022/07/04 01:52:24;;;;;;;3.95;1.13;;;16.80;99.90;;;;;;5048988;28;20040;-85
2022/07/04 01:54:50;;;;;;;2.42;0.80;;;16.50;99.90;;;;;;5054184;28;20063;-85
2022/07/04 01:57:16;;;;;;;2.70;0.98;;;16.80;99.90;;;;;;5069612;28;20079;-85
2022/07/04 02:02:32;;;;;;;5.32;1.17;;;16.30;99.90;;;;;;5058644;28;20048;-86
2022/07/04 02:04:59;;;;;;;5.75;1.40;;;16.70;99.90;;;;;;5052734;28;20785;-85
2022/07/04 02:07:25;;;;;;;5.28;1.23;;;16.80;99.90;;;;;;5061150;28;20107;-85
2022/07/04 02:09:53;;;;;;;2.85;0.80;;;16.80;99.90;;;;;;5052822;28;20060;-85
2022/07/04 02:15:03;;;;;;;3.28;1.25;;;16.80;99.90;;;;;;5061249;28;20132;-86
2022/07/04 02:17:29;;;;;;;2.25;0.90;;;16.80;99.90;;;;;;5045021;28;20071;-86
2022/07/04 02:19:55;;;;;;;2.10;0.93;;;16.80;99.90;;;;;;5051196;28;20049;-85
2022/07/04 02:22:21;;;;;;;3.42;0.93;;;16.80;99.90;;;;;;5054510;28;20060;-85
2022/07/04 02:24:47;;;;;;;3.13;1.00;;;16.80;99.90;;;;;;5045949;28;20403;-85
2022/07/04 02:27:20;;;;;;;3.50;1.00;;;16.90;99.90;;;;;;5046019;28;20115;-86
2022/07/04 02:29:46;;;;;;;8.05;1.58;;;17.00;99.90;;;;;;5044576;28;20041;-86
2022/07/04 02:32:12;;;;;;;3.35;0.80;;;16.10;99.90;;;;;;5052947;28;20051;-85
2022/07/04 02:34:38;;;;;;;4.30;1.10;;;16.90;99.90;;;;;;5045925;28;20090;-85
2022/07/04 02:37:04;;;;;;;4.85;1.15;;;16.90;99.90;;;;;;5051757;28;20446;-85
2022/07/04 02:39:30;;;;;;;4.80;1.10;;;16.90;99.90;;;;;;5053030;28;20108;-86
2022/07/04 02:41:55;;;;;;;1.88;0.73;;;16.90;99.90;;;;;;5053597;28;20482;-84
2022/07/04 02:44:21;;;;;;;2.45;0.90;;;17.00;99.90;;;;;;5052216;28;20048;-84
2022/07/04 02:46:47;;;;;;;4.50;1.00;;;16.30;99.90;;;;;;5052070;28;20048;-83
2022/07/04 02:49:13;;;;;;;2.67;0.90;;;17.00;99.90;;;;;;5046062;28;20056;-84
2022/07/04 02:51:46;;;;;;;3.17;0.80;;;17.00;99.90;;;;;;5052418;28;20131;-84
2022/07/04 02:54:14;;;;;;;2.55;0.90;;;17.00;99.90;;;;;;5028839;28;20121;-83
2022/07/04 02:56:40;;;;;;;3.20;0.98;;;17.00;99.90;;;;;;5052202;28;20044;-85
2022/07/04 02:59:06;;;;;;;3.45;0.70;;;17.00;99.90;;;;;;5056293;28;20118;-86
2022/07/04 03:01:32;;;;;;;2.72;1.00;;;17.00;99.90;;;;;;5055707;28;20051;-85
2022/07/04 03:04:03;;;;;;;3.40;1.00;;;17.00;99.90;;;;;;5032326;28;20087;-86
2022/07/04 03:06:30;;;;;;;2.38;0.85;;;17.00;99.90;;;;;;5051365;28;20101;-85
2022/07/04 03:09:00;;;;;;;2.08;0.80;;;16.90;99.90;;;;;;5049536;28;20060;-85
2022/07/04 03:11:26;;;;;;;3.40;0.90;;;17.00;99.90;;;;;;5051133;28;20127;-85
2022/07/04 03:13:52;;;;;;;3.80;1.27;;;16.90;99.90;;;;;;5047536;28;20131;-85
2022/07/04 03:16:18;;;;;;;3.53;1.23;;;16.90;99.90;;;;;;5051203;28;20559;-85
2022/07/04 03:18:44;;;;;;;5.47;1.30;;;16.90;99.90;;;;;;5055029;28;20109;-85
2022/07/04 03:21:09;;;;;;;2.80;1.10;;;16.80;99.90;;;;;;5048168;28;20057;-84
2022/07/04 03:23:38;;;;;;;3.13;1.27;;;16.80;99.90;;;;;;5048468;28;20052;-85
2022/07/04 03:26:07;;;;;;;3.15;1.30;;;16.80;99.90;;;;;;5033115;28;20071;-86
2022/07/04 03:28:33;;;;;;;3.10;1.10;;;16.80;99.90;;;;;;5046289;28;20498;-85
2022/07/04 03:30:59;;;;;;;5.57;1.45;;;16.80;99.90;;;;;;5050315;28;20051;-85
2022/07/04 03:33:25;;;;;;;4.82;1.35;;;16.80;99.90;;;;;;5052140;28;20046;-85
2022/07/04 03:35:54;;;;;;;3.22;1.20;;;16.70;99.90;;;;;;5048466;28;20045;-85
2022/07/04 03:38:19;;;;;;;3.58;1.67;;;16.80;99.90;;;;;;5056297;28;20084;-84
2022/07/04 03:40:45;;;;;;;2.33;1.42;;;16.70;99.90;;;;;;5047930;28;20126;-85
2022/07/04 03:43:11;;;;;;;3.55;1.63;;;16.70;99.90;;;;;;5054890;28;20044;-85
2022/07/04 03:45:37;;;;;;;3.10;1.45;;;16.70;99.90;;;;;;5049428;28;20491;-84
2022/07/04 03:48:05;;;;;;;2.80;1.40;;;16.70;99.90;;;;;;5046959;28;20044;-84
2022/07/04 03:50:33;;;;;;;2.13;1.20;;;16.70;99.90;;;;;;5036316;28;20040;-84
2022/07/04 03:53:01;;;;;;;6.55;1.40;;;16.70;99.90;;;;;;5047257;28;20040;-85
2022/07/04 03:55:30;;;;;;;3.53;1.42;;;16.70;99.90;;;;;;5049472;28;20465;-84
2022/07/04 03:57:56;;;;;;;4.22;1.40;;;16.80;99.90;;;;;;5062389;28;20179;-85
2022/07/04 04:00:24;;;;;;;2.13;1.33;;;16.80;99.90;;;;;;5048974;28;20047;-84
2022/07/04 04:02:50;;;;;;;3.15;1.40;;;16.80;99.90;;;;;;5054545;28;20056;-85
2022/07/04 04:05:30;;;;;;;2.92;1.25;;;16.80;99.90;;;;;;5064193;28;20398;-84
2022/07/04 04:08:02;;;;;;;4.57;1.10;;;16.80;99.90;;;;;;5039673;28;20380;-84
2022/07/04 04:10:30;;;;;;;3.33;1.35;;;16.80;99.90;;;;;;5046202;28;20052;-84
2022/07/04 04:12:57;;;;;;;3.45;1.45;;;16.90;99.90;;;;;;5064809;28;20044;-84
2022/07/04 04:15:23;;;;;;;2.58;1.20;;;16.80;99.90;;;;;;5049101;28;20456;-84
2022/07/04 04:17:49;;;;;;;3.70;1.40;;;16.80;99.90;;;;;;5055334;28;20071;-84
2022/07/04 04:20:14;;;;;;;4.95;1.40;;;16.80;99.90;;;;;;5054801;28;20055;-84
2022/07/04 04:22:40;;;;;;;1.98;1.30;;;16.80;99.90;;;;;;5046387;28;20513;-84
2022/07/04 04:25:07;;;;;;;4.15;1.42;;;16.80;99.90;;;;;;5047821;28;20118;-84
2022/07/04 04:27:35;;;;;;;4.07;1.45;;;16.80;99.90;;;;;;5037988;28;20052;-84
2022/07/04 04:30:08;;;;;;;4.18;1.55;;;16.80;99.90;;;;;;5062318;28;20051;-85
2022/07/04 04:32:34;;;;;;;4.10;1.25;;;16.80;99.90;;;;;;5054017;28;20059;-84
2022/07/04 04:35:03;;;;;;;3.67;1.50;;;16.80;99.90;;;;;;5046536;28;20051;-84
2022/07/04 04:37:31;;;;;;;3.22;1.60;;;16.80;99.90;;;;;;5036671;28;20473;-85
2022/07/04 04:39:57;;;;;;;2.85;1.70;;;16.70;99.90;;;;;;5028535;28;20087;-85
2022/07/04 04:42:23;;;;;;;5.53;1.60;;;16.90;99.90;;;;;;5055057;28;20072;-84
2022/07/04 04:44:49;;;;;;;5.50;1.80;;;17.00;99.90;;;;;;5047083;28;20394;-83
2022/07/04 04:47:18;;;;;;;4.43;1.30;;;17.00;99.90;;;;;;5054079;28;20047;-85
2022/07/04 04:49:44;;;;;;;3.60;1.15;;;17.00;99.90;;;;;;5062491;28;20277;-84
2022/07/04 04:52:11;;;;;;;2.97;1.48;;;17.10;99.90;;;;;;5054074;28;20155;-84
2022/07/04 04:54:37;;;;;;;4.22;1.35;;;17.10;99.90;;;;;;5025992;28;20461;-86
2022/07/04 04:57:03;;;;;;;2.33;1.33;;;16.50;99.90;;;;;;5046396;28;20097;-84
2022/07/04 04:59:49;;;;;;;3.75;1.50;;;17.20;99.90;;;;;;5045830;28;20511;-85
2022/07/04 05:02:15;;;;;;;3.55;1.27;;;17.20;99.90;;;;;;5044994;28;20531;-84
2022/07/04 05:04:45;;;;;;;6.00;1.50;;;17.10;99.90;;;;;;5053172;28;20088;-86
2022/07/04 05:07:11;;;;;;;2.95;1.40;;;17.20;99.90;;;;;;5053964;28;20064;-86
2022/07/04 05:09:37;;;;;;;3.60;1.40;;;17.20;99.90;;;;;;5055120;28;20147;-85
2022/07/04 05:12:06;;;;;;;4.97;1.40;;;17.20;99.90;;;;;;5047999;28;20059;-84
2022/07/04 05:14:46;;;;;;;6.00;1.58;;;17.30;99.90;;;;;;5074065;28;20074;-89
2022/07/04 05:17:12;;;;;;;4.07;1.23;;;17.30;99.90;;;;;;5045742;28;20037;-84
2022/07/04 05:19:38;;;;;;;3.63;1.40;;;17.30;99.90;;;;;;5054597;28;20040;-84
2022/07/04 05:22:04;;;;;;;3.58;1.35;;;16.80;99.90;;;;;;5054710;28;20044;-86
2022/07/04 05:24:29;;;;;;;3.80;1.50;;;17.30;99.90;;;;;;5046594;28;20045;-84
2022/07/04 05:27:04;;;;;;;3.55;1.30;;;17.40;99.90;;;;;;5051038;28;20052;-87
2022/07/04 05:29:36;;;;;;;2.67;1.30;;;17.50;99.90;;;;;;5047949;28;20044;-87
2022/07/04 05:32:23;;;;;;;3.50;1.35;;;17.60;99.90;;;;;;5050131;28;20040;-88
2022/07/04 05:34:51;;;;;;;;;;;17.70;99.90;;;;;;5061379;28;20048;-84
2022/07/04 05:37:17;;;;;;;2.53;1.15;;;17.20;99.90;;;;;;5050491;28;19939;-85
2022/07/04 05:39:45;;;;;;;2.28;1.40;;;17.70;99.90;;;;;;5044679;28;20049;-87
2022/07/04 05:42:11;;;;;;;2.95;1.25;;;17.80;99.90;;;;;;5061763;28;20101;-85
2022/07/04 05:44:47;;;;;;;3.15;1.13;;;18.10;99.90;;;;;;5029643;28;20040;-89
2022/07/04 05:47:13;;;;;;;2.47;1.00;;;17.50;99.90;;;;;;5046563;28;20055;-86
2022/07/04 05:49:39;;;;;;;3.50;1.30;;;18.00;99.90;;;;;;5051615;28;20044;-86
2022/07/04 05:52:07;;;;;;;3.25;1.17;;;18.00;99.90;;;;;;5051121;28;20040;-86
2022/07/04 05:54:33;;;;;;;2.20;1.20;;;18.00;99.90;;;;;;5049889;28;20055;-84
2022/07/04 05:56:59;;;;;;;2.88;1.13;;;18.00;99.90;;;;;;5044172;28;20040;-86
2022/07/04 05:59:35;;;;;;;3.88;1.30;;;18.10;99.90;;;;;;5050227;28;20056;-84
2022/07/04 06:02:01;;;;;;;3.33;1.50;;;18.00;99.90;;;;;;5035074;28;20055;-85
2022/07/04 06:04:27;;;;;;;3.50;1.20;;;17.70;99.90;;;;;;5054259;28;20130;-84
2022/07/04 06:06:55;;;;;;;2.08;0.90;;;18.00;99.90;;;;;;5044630;28;20040;-85
2022/07/04 06:09:21;;;;;;;2.67;1.10;;;18.10;99.90;;;;;;5041782;28;20079;-86
2022/07/04 06:11:47;;;;;;;3.38;1.13;;;18.00;99.90;;;;;;5048460;28;20492;-85
2022/07/04 06:14:15;;;;;;;4.25;1.00;;;18.00;99.90;;;;;;5051461;28;20403;-88
2022/07/04 06:16:40;;;;;;;2.40;0.93;;;18.00;99.90;;;;;;5051660;28;20044;-84
2022/07/04 06:19:09;;;;;;;4.90;1.00;;;18.10;99.90;;;;;;5043348;28;20044;-84
2022/07/04 06:21:38;;;;;;;1.50;0.80;;;18.10;99.90;;;;;;5052332;28;20047;-85
2022/07/04 06:24:10;;;;;;;2.58;1.00;;;18.20;99.90;;;;;;5044223;28;20067;-86
2022/07/04 06:26:36;;;;;;;2.33;0.80;;;18.30;99.90;;;;;;5059002;28;20475;-85
2022/07/04 06:29:02;;;;;;;2.75;1.20;;;18.40;99.90;;;;;;5050974;28;20123;-86
2022/07/04 06:31:28;;;;;;;5.13;1.00;;;18.30;99.90;;;;;;5060675;28;20521;-85
2022/07/04 06:36:38;;;;;;;1.45;0.73;;;18.50;99.90;;;;;;5050982;28;20128;-84
2022/07/04 06:39:04;;;;;;;2.38;0.90;;;18.50;99.90;;;;;;5054412;28;20107;-87
2022/07/04 06:41:29;;;;;;;3.03;0.95;;;18.10;99.90;;;;;;5064791;28;20478;-85
2022/07/04 06:43:55;;;;;;;5.85;1.00;;;18.60;99.90;;;;;;5064986;28;20054;-86
2022/07/04 06:46:21;;;;;;;3.53;1.00;;;18.70;99.90;;;;;;5047314;28;20044;-85
2022/07/04 06:48:47;;;;;;;2.38;1.02;;;18.60;99.90;;;;;;5022047;28;20044;-85
2022/07/04 06:51:13;;;;;;;2.83;1.02;;;18.70;99.90;;;;;;5046843;28;20109;-86
2022/07/04 06:53:41;;;;;;;2.40;0.90;;;19.00;99.90;;;;;;5056924;28;20048;-88
2022/07/04 06:56:07;;;;;;;2.40;1.00;;;19.10;99.90;;;;;;5031157;28;20052;-85
2022/07/04 06:58:33;;;;;;;1.77;0.82;;;19.10;99.90;;;;;;5046655;28;20051;-83
2022/07/04 07:00:59;;;;;;;2.33;0.95;;;19.20;99.90;;;;;;5054017;28;20079;-84
2022/07/04 07:03:27;;;;;;;3.10;1.00;;;19.20;99.90;;;;;;5049596;28;20058;-85
2022/07/04 07:05:53;;;;;;;2.50;1.00;;;19.20;99.90;;;;;;5068944;28;20055;-83
2022/07/04 07:08:19;;;;;;;2.10;1.02;;;19.30;99.90;;;;;;5054469;28;20052;-84
2022/07/04 07:10:45;;;;;;;2.63;0.98;;;19.70;99.90;;;;;;5056385;28;20127;-83
2022/07/04 07:13:11;;;;;;;3.63;1.50;;;19.40;99.90;;;;;;5050407;28;20122;-83
2022/07/04 07:15:37;;;;;;;5.32;1.30;;;19.50;99.90;;;;;;5037878;28;20442;-83
2022/07/04 07:18:03;;;;;;;4.00;1.17;;;19.70;99.90;;;;;;5037402;28;20065;-84
2022/07/04 07:20:29;;;;;;;5.35;1.13;;;19.70;99.90;;;;;;5050219;28;20101;-83
2022/07/04 07:22:55;;;;;;;3.65;1.40;;;19.60;99.90;;;;;;5047283;28;20056;-84
2022/07/04 07:25:21;;;;;;;2.60;1.10;;;19.70;99.90;;;;;;5048641;28;20116;-84
2022/07/04 07:27:47;;;;;;;4.47;1.20;;;19.70;99.90;;;;;;5019200;28;20050;-86
2022/07/04 07:30:13;;;;;;;6.53;1.42;;;19.60;99.90;;;;;;5027174;28;20044;-86
2022/07/04 07:32:39;;;;;;;4.50;1.20;;;19.70;99.90;;;;;;5051506;28;20043;-82
2022/07/04 07:35:05;;;;;;;2.30;1.30;;;19.70;99.90;;;;;;5050015;28;20048;-83
2022/07/04 07:37:31;;;;;;;4.53;1.20;;;19.80;99.90;;;;;;5013878;28;20039;-83
2022/07/04 07:39:56;;;;;;;2.80;1.42;;;20.00;99.90;;;;;;5034879;28;20048;-83
2022/07/04 07:42:25;;;;;;;5.32;1.23;;;20.20;99.90;;;;;;5064148;28;20479;-81
2022/07/04 07:44:51;;;;;;;20.33;2.33;;;20.30;99.90;;;;;;5063239;28;20501;-82
2022/07/04 07:47:17;;;;;;;3.63;1.10;;;19.80;99.90;;;;;;5037430;28;20151;-83
2022/07/04 07:49:44;;;;;;;4.03;1.45;;;20.20;99.90;;;;;;5036807;28;20056;-84
2022/07/04 07:52:10;;;;;;;2.88;1.20;;;20.00;99.90;;;;;;5032406;28;20510;-87
2022/07/04 07:54:36;;;;;;;2.55;1.08;;;20.00;99.90;;;;;;5064223;28;20043;-86
2022/07/04 07:57:03;;;;;;;2.63;1.02;;;19.90;99.90;;;;;;5048301;28;20071;-87
2022/07/04 07:59:28;;;;;;;2.45;1.20;;;19.30;99.90;;;;;;5046741;28;20287;-85
2022/07/04 08:02:06;;;;;;;3.10;1.08;;;19.80;99.90;;;;;;5030847;28;20048;-86
2022/07/04 08:04:34;;;;;;;2.85;0.98;;;20.00;99.90;;;;;;5047245;28;20052;-84
2022/07/04 08:07:05;;;;;;;2.85;1.10;;;20.00;99.90;;;;;;5047384;28;20094;-86
2022/07/04 08:09:34;;;;;;;3.78;1.27;;;19.90;99.90;;;;;;5045651;28;20082;-86
2022/07/04 08:12:05;;;;;;;3.33;1.20;;;19.70;99.90;;;;;;5048798;28;20040;-84
2022/07/04 08:14:34;;;;;;;3.25;1.00;;;19.50;99.90;;;;;;5046386;28;20071;-84
2022/07/04 08:17:00;;;;;;;2.05;0.90;;;19.40;99.90;;;;;;5049152;28;20047;-85
2022/07/04 08:19:26;;;;;;;3.47;1.35;;;19.30;99.90;;;;;;5048940;28;20162;-84
2022/07/04 08:21:53;;;;;;;3.92;1.00;;;19.50;99.90;;;;;;5048209;28;20047;-82
2022/07/04 08:24:20;;;;;;;2.20;1.00;;;19.80;99.90;;;;;;5063607;28;20051;-83
2022/07/04 08:26:48;;;;;;;2.78;1.10;;;20.30;99.90;;;;;;5044851;28;20041;-83
2022/07/04 08:29:14;;;;;;;3.42;1.00;;;20.60;99.90;;;;;;5051827;28;20055;-82
2022/07/04 08:31:41;;;;;;;2.30;1.10;;;21.10;99.90;;;;;;5045475;28;20044;-83
2022/07/04 08:34:06;;;;;;;2.95;1.25;;;20.80;99.90;;;;;;5054677;28;20058;-83
2022/07/04 08:36:32;;;;;;;2.38;1.02;;;21.10;99.90;;;;;;5045496;28;20048;-82
2022/07/04 08:38:58;;;;;;;2.90;1.10;;;21.20;99.90;;;;;;5044982;28;20048;-84
2022/07/04 08:41:24;;;;;;;6.35;1.25;;;21.40;99.90;;;;;;5051017;28;20063;-84
2022/07/04 08:43:51;;;;;;;3.70;1.02;;;21.70;99.90;;;;;;5043931;28;22072;-83
2022/07/04 08:46:18;;;;;;;3.35;1.20;;;21.90;99.90;;;;;;5062925;28;20048;-83
2022/07/04 08:48:52;;;;;;;2.85;0.93;;;21.90;99.90;;;;;;5062057;28;20043;-85
2022/07/04 08:51:37;;;;;;;2.20;0.90;;;21.90;99.90;;;;;;5078446;28;20055;-83
2022/07/04 08:58:25;;;;;;;4.10;1.23;;;22.00;99.90;;;;;;5053090;28;20041;-83
2022/07/04 08:59:36;;;;;;;2.13;0.80;;;22.50;99.90;;;;;;5047544;28;20056;-84
2022/07/04 09:02:03;;;;;;;4.63;1.30;;;22.50;99.90;;;;;;5047684;28;20882;-84
2022/07/04 09:04:30;;;;;;;2.20;1.00;;;22.70;99.90;;;;;;5046754;28;20428;-83
2022/07/04 09:06:57;;;;;;;2.25;0.70;;;22.50;99.90;;;;;;5058895;28;20036;-83
2022/07/04 09:09:24;;;;;;;1.95;0.95;;;22.60;99.90;;;;;;5043082;28;20056;-83
2022/07/04 09:11:50;;;;;;;3.05;1.00;;;22.80;99.90;;;;;;5044969;28;20131;-83
2022/07/04 09:14:16;;;;;;;2.78;0.98;;;22.80;99.90;;;;;;5042027;28;20060;-83
2022/07/04 09:16:42;;;;;;;2.53;1.05;;;22.90;99.90;;;;;;5028853;28;20115;-83
2022/07/04 09:19:21;;;;;;;3.50;1.15;;;23.00;99.90;;;;;;5034640;28;20043;-82
2022/07/04 09:21:48;;;;;;;2.30;0.98;;;23.20;99.90;;;;;;5050014;28;20435;-81
2022/07/04 09:24:14;;;;;;;4.07;1.10;;;23.30;99.90;;;;;;5042989;28;20047;-82
2022/07/04 09:26:46;;;;;;;3.42;0.95;;;23.40;99.90;;;;;;5044838;28;20052;-81
2022/07/04 09:29:13;;;;;;;4.10;0.98;;;23.30;99.90;;;;;;5044991;28;20495;-85
2022/07/04 09:31:42;;;;;;;8.07;1.48;;;23.40;99.90;;;;;;5065013;28;20562;-85
2022/07/04 09:34:08;;;;;;;2.17;0.80;;;23.60;99.90;;;;;;5054111;28;20040;-85
2022/07/04 09:36:40;;;;;;;2.83;1.40;;;23.70;99.90;;;;;;5064999;28;20060;-85
2022/07/04 09:39:14;;;;;;;3.60;1.00;;;23.90;99.90;;;;;;5063530;28;20074;-86
2022/07/04 09:42:02;;;;;;;3.50;1.10;;;23.60;99.00;;;;;;5052244;28;20058;-85
2022/07/04 09:44:46;;;;;;;6.00;1.00;;;23.30;99.10;;;;;;5047111;28;20423;-85
2022/07/04 09:47:24;;;;;;;4.55;1.13;;;23.30;99.80;;;;;;5054992;28;20039;-85
2022/07/04 09:50:18;;;;;;;3.75;0.90;;;23.10;99.30;;;;;;5049279;28;20036;-85
2022/07/04 09:52:53;;;;;;;3.35;0.90;;;22.80;98.40;;;;;;5051226;28;20045;-84
2022/07/04 09:55:28;;;;;;;2.05;0.90;;;22.40;99.50;;;;;;5049653;28;20129;-85
2022/07/04 09:58:02;;;;;;;3.70;1.08;;;21.90;99.90;;;;;;5047541;28;20044;-84
2022/07/04 10:00:40;;;;;;;3.33;0.98;;;21.50;99.90;;;;;;5033113;28;20052;-85
2022/07/04 10:03:27;;;;;;;3.30;1.05;;;21.60;99.90;;;;;;5048958;28;20121;-83
2022/07/04 10:06:05;;;;;;;4.00;1.23;;;21.60;99.90;;;;;;5057126;28;20041;-83
2022/07/04 10:08:32;;;;;;;6.72;1.00;;;20.90;99.90;;;;;;5048256;28;20182;-85
2022/07/04 10:10:59;;;;;;;3.38;1.20;;;20.80;99.90;;;;;;5037741;28;20101;-84
2022/07/04 10:13:26;;;;;;;2.95;1.15;;;20.60;99.90;;;;;;5049909;28;20576;-85
2022/07/04 10:15:57;;;;;;;3.00;1.10;;;20.40;99.90;;;;;;5065176;28;20048;-87
2022/07/04 10:18:24;;;;;;;3.75;1.20;;;20.30;99.90;;;;;;5073576;28;20052;-85
2022/07/04 10:20:52;;;;;;;4.90;1.17;;;20.60;99.90;;;;;;5051259;28;20048;-85
2022/07/04 10:23:20;;;;;;;2.42;0.85;;;20.70;99.90;;;;;;5055756;28;20054;-85
2022/07/04 10:25:49;;;;;;;3.17;1.00;;;20.60;99.90;;;;;;5035752;28;20407;-83
2022/07/04 10:28:17;;;;;;;3.17;0.90;;;19.70;99.90;;;;;;5047363;28;20044;-83
2022/07/04 10:30:45;;;;;;;2.72;1.00;;;20.90;99.90;;;;;;5053887;28;20044;-83
2022/07/04 10:33:21;;;;;;;1.50;0.80;;;21.30;99.90;;;;;;5054262;28;20048;-84
2022/07/04 10:35:53;;;;;;;2.25;0.93;;;21.40;99.90;;;;;;5049093;28;20043;-84
2022/07/04 10:38:26;;;;;;;6.28;1.20;;;21.20;99.90;;;;;;5048031;28;20048;-83
2022/07/04 10:40:56;;;;;;;3.65;1.10;;;21.40;99.90;;;;;;5051878;28;20487;-84
2022/07/04 10:43:37;;;;;;;1.63;1.17;;;21.70;99.90;;;;;;5044192;28;20052;-85
2022/07/04 10:46:05;;;;;;;2.58;0.88;;;22.00;99.90;;;;;;5049474;28;20078;-89
2022/07/04 10:48:31;;;;;;;3.05;0.98;;;22.40;99.90;;;;;;5055953;28;20059;-83
2022/07/04 10:51:01;;;;;;;2.63;0.90;;;22.10;99.90;;;;;;5066343;28;20052;-84
2022/07/04 10:53:28;;;;;;;2.72;0.77;;;22.10;99.90;;;;;;5039344;28;20048;-84
2022/07/04 10:56:03;;;;;;;2.85;1.00;;;22.30;99.90;;;;;;5052182;28;20049;-84
2022/07/04 10:58:39;;;;;;;2.85;0.80;;;22.60;99.90;;;;;;5049570;28;20491;-86
2022/07/04 11:01:18;;;;;;;3.15;1.02;;;22.50;99.20;;;;;;5051175;28;20039;-85
2022/07/04 11:04:02;;;;;;;2.72;1.00;;;22.90;99.20;;;;;;5055293;28;20060;-84
2022/07/04 11:06:42;;;;;;;3.25;0.95;;;23.00;99.00;;;;;;5071089;28;20044;-85
2022/07/04 11:09:16;;;;;;;1.85;0.75;;;22.70;99.40;;;;;;5047841;28;20060;-84
2022/07/04 11:11:58;;;;;;;2.03;0.77;;;22.20;99.40;;;;;;5064865;28;20509;-85
2022/07/04 11:14:47;;;;;;;1.88;0.80;;;22.30;99.70;;;;;;5044949;28;20052;-85
2022/07/04 11:17:15;;;;;;;3.42;1.00;;;22.60;99.70;;;;;;5051929;28;20407;-84
2022/07/04 11:19:44;;;;;;;1.98;0.70;;;22.80;99.30;;;;;;5061084;28;20083;-84
2022/07/04 11:22:10;;;;;;;3.55;1.10;;;22.90;98.50;;;;;;5046653;28;20403;-84
2022/07/04 11:24:38;;;;;;;2.42;0.75;;;23.00;98.10;;;;;;5046767;28;20132;-84
2022/07/04 11:27:07;;;;;;;2.33;0.77;;;23.10;97.90;;;;;;5051751;28;20148;-84
2022/07/04 11:29:34;;;;;;;1.95;0.80;;;23.40;97.40;;;;;;5045489;28;20500;-84
2022/07/04 11:32:07;;;;;;;2.85;0.80;;;23.20;96.90;;;;;;5043740;28;20048;-86
2022/07/04 11:34:33;;;;;;;2.15;0.80;;;23.20;97.20;;;;;;5046194;28;20127;-85
2022/07/04 11:37:01;;;;;;;1.70;0.90;;;23.20;97.40;;;;;;5053203;28;20506;-85
2022/07/04 11:39:34;;;;;;;1.85;0.57;;;23.40;97.50;;;;;;5033613;28;20131;-85
2022/07/04 11:45:02;;;;;;;2.40;0.80;;;23.30;97.20;;;;;;5062178;28;20150;-85
2022/07/04 11:47:32;;;;;;;2.30;0.90;;;23.30;97.70;;;;;;5051659;28;20113;-85
2022/07/04 11:49:59;;;;;;;2.40;1.05;;;23.40;98.10;;;;;;5067220;28;20107;-85
2022/07/04 11:52:38;;;;;;;2.78;0.82;;;23.20;97.70;;;;;;5045150;28;20076;-85
2022/07/04 11:55:05;;;;;;;4.40;0.82;;;22.90;97.50;;;;;;5048163;28;20056;-85
2022/07/04 11:57:39;;;;;;;2.55;0.70;;;22.80;97.80;;;;;;5037087;28;20419;-85
2022/07/04 12:00:09;;;;;;;2.08;0.63;;;22.80;97.30;;;;;;5048315;28;20081;-86
2022/07/04 12:02:36;;;;;;;2.78;0.75;;;23.00;97.10;;;;;;5042703;28;20051;-86
2022/07/04 12:05:04;;;;;;;1.83;0.80;;;23.10;97.20;;;;;;5061737;28;20052;-85
2022/07/04 12:07:35;;;;;;;1.15;0.52;;;23.30;96.80;;;;;;5045259;28;20044;-85
2022/07/04 12:10:13;;;;;;;4.30;0.80;;;23.50;96.60;;;;;;5060292;28;20534;-85
2022/07/04 12:12:55;;;;;;;1.90;0.50;;;23.80;96.40;;;;;;5044246;28;20090;-85
2022/07/04 12:15:23;;;;;;;3.35;0.80;;;23.50;95.80;;;;;;5045834;28;20080;-86
2022/07/04 12:17:52;;;;;;;2.60;1.02;;;23.20;96.40;;;;;;5059983;28;20063;-86
2022/07/04 12:20:18;;;;;;;1.05;0.60;;;23.30;96.80;;;;;;5060869;28;20052;-86
2022/07/04 12:22:53;;;;;;;1.95;0.65;;;23.40;96.20;;;;;;5050950;28;20045;-85
2022/07/04 12:25:29;;;;;;;2.47;0.60;;;23.40;96.10;;;;;;5045115;28;20419;-85
2022/07/04 12:28:00;;;;;;;1.85;0.68;;;23.10;95.90;;;;;;5044015;28;20119;-87
2022/07/04 12:30:28;;;;;;;2.28;0.70;;;23.10;96.20;;;;;;5054512;28;20588;-85
2022/07/04 12:33:01;;;;;;;1.27;0.63;;;23.40;96.30;;;;;;5054261;28;20049;-86
2022/07/04 12:35:33;;;;;;;1.73;0.60;;;23.50;95.90;;;;;;5064274;28;20514;-86
2022/07/04 12:38:07;;;;;;;1.45;0.60;;;23.20;96.10;;;;;;5051247;28;20051;-85
2022/07/04 12:40:35;;;;;;;1.33;0.70;;;23.20;96.70;;;;;;5046051;28;20044;-84
2022/07/04 12:43:08;;;;;;;2.75;0.73;;;23.50;97.00;;;;;;5046530;28;20452;-93
2022/07/04 12:45:53;;;;;;;2.15;0.70;;;23.60;96.50;;;;;;5053438;28;20051;-84
2022/07/04 12:48:29;;;;;;;1.15;0.63;;;23.80;94.90;;;;;;5068666;28;20048;-83
2022/07/04 12:51:10;;;;;;;1.10;0.50;;;23.90;95.30;;;;;;5064803;28;20040;-83
2022/07/04 12:53:37;;;;;;;1.63;0.63;;;24.00;94.80;;;;;;5066843;28;20083;-83
2022/07/04 12:56:03;;;;;;;2.20;0.77;;;24.40;94.20;;;;;;5051531;28;20119;-82
2022/07/04 12:58:29;;;;;;;1.80;0.65;;;24.50;94.00;;;;;;5034627;28;20130;-83
2022/07/04 13:01:26;;;;;;;1.88;0.85;;;24.70;93.80;;;;;;5044829;28;20040;-83
2022/07/04 13:03:52;;;;;;;2.30;1.00;;;24.50;92.00;;;;;;5063776;28;20052;-84
2022/07/04 13:06:18;;;;;;;2.85;0.70;;;24.60;91.90;;;;;;5045380;28;20059;-83
2022/07/04 13:08:45;;;;;;;1.60;0.60;;;24.20;92.00;;;;;;5043827;28;20056;-82
2022/07/04 13:13:55;;;;;;;2.25;0.80;;;24.30;92.40;;;;;;5046923;28;20044;-85